Terminal Aerodrome Forecast
Issued by NWS

Home | Current Version | Previous Version | Text Only | Print | Product List | Glossary On
Versions: 1 2 3 4 5 6 7 8 9 10 11 12 13 14 15 16 17 18 19 20 21
285
FTUS46 KSEW 210903 AAA
TAFOLM
TAF AMD
KOLM 210903Z 2109/2206 19017KT P6SM SCT025 OVC090
     FM211100 19018G28KT 6SM -RA BR BKN015 OVC030
     FM211500 18018G28KT 4SM -RA BR BKN015 OVC030
     FM212000 20011G18KT 6SM -SHRA BKN015 BKN030
     FM220000 21010G18KT P6SM VCSH SCT020 BKN035
     FM220400 22010KT P6SM SCT020 BKN035=

USA.gov is the U.S. government's official web portal to all federal, state and local government web resources and services.